Time;durP1;ratioP1;P1;durP2;ratioP2;P2;SDS_P1;SDS_P2;PMS_P1;PMS_P2;Temp;Humidity;BMP_temperature;BMP_pressure;BME280_temperature;BME280_humidity;BME280_pressure;Samples;Min_cycle;Max_cycle;Signal;HPM_P1;HPM_P2
2022/07/05 00:00:05;;;;;;;;;1.50;0.50;;;;;20.77;48.40;102010.53;5069692;28;45395;-58
2022/07/05 00:02:30;;;;;;;;;1.00;0.75;;;;;20.73;48.40;102000.22;5069505;28;46380;-59
2022/07/05 00:04:55;;;;;;;;;1.25;0.75;;;;;20.70;48.72;102011.19;5069576;28;45508;-58
2022/07/05 00:07:21;;;;;;;;;1.25;1.25;;;;;20.66;48.48;102009.72;5069829;28;45636;-59
2022/07/05 00:09:50;;;;;;;;;1.00;0.50;;;;;20.61;48.62;102008.25;5069513;28;45428;-58
2022/07/05 00:12:17;;;;;;;;;0.50;0.50;;;;;20.57;48.67;102008.66;5071495;28;45336;-59
2022/07/05 00:14:44;;;;;;;;;1.25;0.75;;;;;20.52;48.70;102014.34;5071849;28;45311;-59
2022/07/05 00:17:11;;;;;;;;;1.75;0.50;;;;;20.46;48.73;102003.28;5071616;28;45432;-59
2022/07/05 00:19:37;;;;;;;;;0.75;0.75;;;;;20.43;48.39;102011.56;5068817;28;45276;-59
2022/07/05 00:22:03;;;;;;;;;1.00;0.75;;;;;20.36;48.80;102011.19;5069819;28;45422;-58
2022/07/05 00:24:28;;;;;;;;;0.25;0.25;;;;;20.34;48.73;102014.00;5069049;28;45325;-59
2022/07/05 00:26:54;;;;;;;;;1.00;0.25;;;;;20.34;48.71;102013.16;5070616;28;45509;-58
2022/07/05 00:29:20;;;;;;;;;2.25;0.50;;;;;20.34;48.49;102014.00;5068198;28;45411;-59
2022/07/05 00:31:45;;;;;;;;;2.75;1.00;;;;;20.33;49.01;102012.28;5069147;28;45317;-59
2022/07/05 00:34:10;;;;;;;;;0.50;0.50;;;;;20.32;48.70;102009.75;5069494;28;45293;-59
2022/07/05 00:36:36;;;;;;;;;0.25;0.25;;;;;20.27;48.91;102004.75;5071098;28;45455;-59
2022/07/05 00:39:03;;;;;;;;;2.00;1.00;;;;;20.22;48.64;102012.31;5070512;28;46136;-59
2022/07/05 00:41:28;;;;;;;;;1.00;1.00;;;;;20.15;49.16;102013.78;5071215;28;45388;-59
2022/07/05 00:43:59;;;;;;;;;0.75;0.50;;;;;20.15;49.26;102005.75;5069576;28;45495;-59
2022/07/05 00:46:26;;;;;;;;;0.50;0.50;;;;;20.12;48.87;102008.66;5069968;28;45476;-58
2022/07/05 00:48:52;;;;;;;;;1.00;1.00;;;;;20.06;48.93;102001.09;5068008;28;45304;-59
2022/07/05 00:51:18;;;;;;;;;1.50;1.50;;;;;20.02;49.34;102013.88;5069015;28;45347;-59
2022/07/05 00:53:44;;;;;;;;;2.75;0.25;;;;;19.98;49.54;102009.72;5069006;27;45485;-59
2022/07/05 00:56:11;;;;;;;;;1.00;1.00;;;;;19.95;48.96;102015.34;5068835;28;45500;-59
2022/07/05 00:58:36;;;;;;;;;8.75;8.75;;;;;19.92;49.55;102012.91;5070657;28;45517;-59
2022/07/05 01:01:05;;;;;;;;;12.25;10.50;;;;;19.88;49.55;102010.59;5071900;28;45234;-59
2022/07/05 01:03:30;;;;;;;;;3.00;1.00;;;;;19.85;49.23;102010.84;5070853;28;45447;-58
2022/07/05 01:05:56;;;;;;;;;1.00;1.00;;;;;19.85;49.29;102013.50;5070575;28;45579;-58
2022/07/05 01:08:23;;;;;;;;;1.00;0.00;;;;;19.84;49.96;102010.00;5067163;28;45353;-58
2022/07/05 01:10:50;;;;;;;;;4.00;1.75;;;;;19.84;49.72;102011.81;5069448;28;45323;-59
2022/07/05 01:13:16;;;;;;;;;1.00;1.00;;;;;19.83;49.71;102007.41;5067547;28;45174;-59
2022/07/05 01:15:42;;;;;;;;;2.25;1.50;;;;;19.78;50.18;102008.63;5068822;28;45610;-59
2022/07/05 01:18:08;;;;;;;;;3.00;1.00;;;;;19.73;49.91;102004.63;5068340;28;46202;-58
2022/07/05 01:20:35;;;;;;;;;1.00;1.00;;;;;19.68;49.67;101998.78;5068741;28;45445;-58
2022/07/05 01:23:02;;;;;;;;;0.50;0.50;;;;;19.65;49.95;101999.84;5073134;28;45554;-58
2022/07/05 01:25:29;;;;;;;;;3.00;2.00;;;;;19.60;50.41;102002.06;5070915;28;46183;-59
2022/07/05 01:27:56;;;;;;;;;1.00;1.00;;;;;19.55;49.87;102003.34;5067476;27;46231;-59
2022/07/05 01:30:22;;;;;;;;;1.00;1.00;;;;;19.50;50.47;102001.84;5068455;28;45356;-59
2022/07/05 01:32:48;;;;;;;;;1.00;1.00;;;;;19.47;50.23;102002.09;5071027;28;45282;-58
2022/07/05 01:35:20;;;;;;;;;3.00;1.75;;;;;19.41;50.21;102002.56;5070966;28;45561;-59
2022/07/05 01:37:46;;;;;;;;;1.00;1.00;;;;;19.42;50.71;101998.91;5072200;28;45410;-58
2022/07/05 01:40:12;;;;;;;;;2.25;1.00;;;;;19.40;50.28;102002.69;5070034;28;45701;-58
2022/07/05 01:42:38;;;;;;;;;0.00;0.00;;;;;19.32;50.61;101997.09;5072740;28;45421;-58
2022/07/05 01:45:04;;;;;;;;;2.25;1.00;;;;;19.29;50.88;101995.50;5072449;28;45449;-58
2022/07/05 01:47:35;;;;;;;;;1.00;1.00;;;;;19.27;50.86;101996.56;5070041;28;46283;-58
2022/07/05 01:50:04;;;;;;;;;2.00;1.00;;;;;19.27;51.19;101993.91;5072501;28;45254;-58
2022/07/05 01:52:31;;;;;;;;;1.00;1.00;;;;;19.24;50.98;101995.00;5071948;28;45333;-58
2022/07/05 01:55:01;;;;;;;;;1.00;1.00;;;;;19.21;50.90;101998.75;5072599;28;45323;-59
2022/07/05 01:57:27;;;;;;;;;1.00;1.00;;;;;19.22;51.06;101997.78;5074205;28;45337;-59
2022/07/05 01:59:53;;;;;;;;;1.00;1.00;;;;;19.22;51.09;101995.13;5071680;28;45517;-58
2022/07/05 02:02:18;;;;;;;;;1.75;1.00;;;;;19.20;51.52;101991.72;5071121;28;45418;-58
2022/07/05 02:04:44;;;;;;;;;3.75;1.00;;;;;19.17;51.24;101985.72;5071960;28;45375;-58
2022/07/05 02:07:09;;;;;;;;;1.75;1.75;;;;;19.13;51.30;101997.63;5072400;28;45385;-58
2022/07/05 02:09:36;;;;;;;;;4.50;1.00;;;;;19.06;51.29;101997.25;5074651;28;45440;-58
2022/07/05 02:12:03;;;;;;;;;1.00;1.00;;;;;18.99;51.71;101990.66;5074075;28;45461;-59
2022/07/05 02:14:28;;;;;;;;;1.00;1.00;;;;;18.95;51.58;101991.81;5073628;28;45337;-59
2022/07/05 02:16:53;;;;;;;;;2.75;2.00;;;;;18.89;51.78;101986.97;5071901;28;45778;-59
2022/07/05 02:19:19;;;;;;;;;1.00;1.00;;;;;18.85;52.04;101988.16;5071124;28;45333;-58
2022/07/05 02:21:45;;;;;;;;;3.25;2.00;;;;;18.77;51.99;101990.53;5074408;28;45382;-59
2022/07/05 02:24:11;;;;;;;;;1.00;1.00;;;;;18.66;52.33;101986.84;5074311;28;45255;-59
2022/07/05 02:26:36;;;;;;;;;3.00;0.75;;;;;18.64;52.57;101988.75;5073276;28;45472;-58
2022/07/05 02:29:04;;;;;;;;;2.75;1.00;;;;;18.61;52.47;101983.63;5071934;28;45239;-59
2022/07/05 02:31:30;;;;;;;;;2.50;1.25;;;;;18.58;52.67;101983.00;5074536;28;45241;-58
2022/07/05 02:33:55;;;;;;;;;2.00;1.00;;;;;18.55;53.07;101992.06;5074358;28;45374;-59
2022/07/05 02:36:21;;;;;;;;;1.00;1.00;;;;;18.49;53.04;101987.19;5072257;28;45553;-58
2022/07/05 02:38:47;;;;;;;;;2.75;2.00;;;;;18.47;53.12;101993.59;5072649;28;45298;-58
2022/07/05 02:41:13;;;;;;;;;4.00;2.00;;;;;18.42;53.31;101994.78;5071736;28;45270;-59
2022/07/05 02:43:39;;;;;;;;;1.50;1.50;;;;;18.44;53.49;101989.34;5079696;28;45413;-59
2022/07/05 02:46:06;;;;;;;;;4.00;3.00;;;;;18.45;53.65;101987.53;5070793;28;45332;-59
2022/07/05 02:48:35;;;;;;;;;4.00;3.00;;;;;18.44;53.90;101994.69;5070907;28;45207;-59
2022/07/05 02:51:02;;;;;;;;;3.00;2.00;;;;;18.35;54.13;101977.53;5073485;28;45484;-59
2022/07/05 02:53:27;;;;;;;;;5.00;3.00;;;;;18.32;54.01;101982.22;5070450;28;45494;-59
2022/07/05 02:55:54;;;;;;;;;1.25;1.25;;;;;18.32;54.23;101984.88;5071676;28;45465;-59
2022/07/05 02:58:19;;;;;;;;;3.00;1.75;;;;;18.33;54.21;101992.78;5073031;28;45408;-59
2022/07/05 03:00:47;;;;;;;;;2.25;2.25;;;;;18.32;54.40;101982.22;5072326;28;45375;-59
2022/07/05 03:03:13;;;;;;;;;3.00;1.75;;;;;18.27;54.22;101979.03;5070913;28;45343;-58
2022/07/05 03:05:39;;;;;;;;;2.00;2.00;;;;;18.24;54.41;101980.09;5070571;28;45215;-58
2022/07/05 03:08:04;;;;;;;;;4.00;2.50;;;;;18.25;54.51;101986.31;5070415;28;45271;-59
2022/07/05 03:10:30;;;;;;;;;2.50;1.50;;;;;18.24;54.86;101987.25;5070698;28;45325;-58
2022/07/05 03:12:55;;;;;;;;;3.00;2.00;;;;;18.18;54.74;101990.38;5070709;28;45326;-59
2022/07/05 03:15:21;;;;;;;;;3.50;2.75;;;;;18.12;54.71;101991.66;5070198;28;46108;-58
2022/07/05 03:17:46;;;;;;;;;3.75;3.00;;;;;18.10;54.83;101985.59;5070670;28;45363;-58
2022/07/05 03:20:12;;;;;;;;;2.50;2.00;;;;;18.12;55.07;101989.00;5070686;28;45361;-58
2022/07/05 03:22:37;;;;;;;;;5.00;3.00;;;;;18.11;55.28;101992.63;5070520;28;45503;-58
2022/07/05 03:25:03;;;;;;;;;2.50;2.00;;;;;18.09;55.44;101989.22;5071626;28;45380;-58
2022/07/05 03:27:28;;;;;;;;;3.00;3.00;;;;;18.10;55.49;101990.91;5070231;28;45342;-58
2022/07/05 03:29:54;;;;;;;;;3.75;3.75;;;;;18.06;55.55;101984.09;5071840;28;45409;-59
2022/07/05 03:32:19;;;;;;;;;5.75;4.25;;;;;18.04;55.73;101994.00;5072740;28;45433;-58
2022/07/05 03:34:45;;;;;;;;;4.50;4.00;;;;;18.03;55.61;101993.16;5071732;28;46023;-58
2022/07/05 03:37:10;;;;;;;;;4.00;4.00;;;;;18.01;55.60;102003.09;5071576;28;45279;-58
2022/07/05 03:39:36;;;;;;;;;7.25;5.00;;;;;18.01;55.63;102002.22;5070726;28;45218;-58
2022/07/05 03:42:01;;;;;;;;;5.00;5.00;;;;;18.01;55.80;101991.53;5070212;28;45227;-58
2022/07/05 03:44:27;;;;;;;;;10.25;5.00;;;;;18.00;55.85;102000.50;5072256;28;45288;-59
2022/07/05 03:46:53;;;;;;;;;7.00;4.00;;;;;18.02;55.93;101999.47;5072189;28;45326;-59
2022/07/05 03:49:18;;;;;;;;;3.00;3.00;;;;;18.03;55.82;102010.97;5072163;28;45482;-58
2022/07/05 03:51:44;;;;;;;;;6.00;5.00;;;;;17.99;56.12;102006.81;5070801;28;45237;-58
2022/07/05 03:54:09;;;;;;;;;5.00;2.00;;;;;17.95;56.28;102016.00;5070402;28;46471;-59
2022/07/05 03:56:35;;;;;;;;;3.50;3.25;;;;;17.94;56.15;102011.63;5072521;28;45511;-58
2022/07/05 03:59:00;;;;;;;;;6.75;6.00;;;;;17.93;56.04;102016.09;5071500;28;45493;-58
2022/07/05 04:01:26;;;;;;;;;4.25;4.25;;;;;17.95;56.52;102013.34;5070920;28;45475;-59
2022/07/05 04:03:51;;;;;;;;;5.25;5.25;;;;;17.93;56.25;102015.22;5069315;28;45440;-58
2022/07/05 04:06:17;;;;;;;;;7.00;5.75;;;;;17.91;56.54;102022.50;5069719;28;45701;-59
2022/07/05 04:08:42;;;;;;;;;5.50;5.25;;;;;17.90;56.34;102024.31;5069350;28;45574;-58
2022/07/05 04:11:09;;;;;;;;;6.00;5.00;;;;;17.89;56.77;102027.09;5069852;28;45473;-59
2022/07/05 04:13:35;;;;;;;;;10.25;5.25;;;;;17.87;56.67;102026.34;5068083;28;45400;-58
2022/07/05 04:16:01;;;;;;;;;7.75;5.75;;;;;17.83;56.84;102023.03;5070239;28;45445;-58
2022/07/05 04:18:26;;;;;;;;;5.25;2.25;;;;;17.80;56.90;102020.56;5069513;27;45217;-59
2022/07/05 04:20:52;;;;;;;;;44.50;37.25;;;;;17.77;56.94;102024.31;5069713;28;45401;-58
2022/07/05 04:23:17;;;;;;;;;10.00;5.00;;;;;17.76;57.17;102024.41;5068285;28;45215;-58
2022/07/05 04:25:43;;;;;;;;;7.00;5.50;;;;;17.74;57.26;102029.84;5071682;28;45232;-58
2022/07/05 04:28:08;;;;;;;;;5.00;5.00;;;;;17.77;57.37;102045.63;5067427;28;45490;-58
2022/07/05 04:30:33;;;;;;;;;6.00;5.00;;;;;17.77;57.41;102045.63;5070225;28;45331;-58
2022/07/05 04:32:59;;;;;;;;;9.00;5.00;;;;;17.75;57.23;102038.69;5072523;28;45537;-59
2022/07/05 04:35:24;;;;;;;;;4.50;4.25;;;;;17.75;57.41;102039.53;5070917;28;45430;-59
2022/07/05 04:37:50;;;;;;;;;5.00;4.00;;;;;17.73;57.71;102035.28;5079295;28;45446;-59
2022/07/05 04:40:16;;;;;;;;;6.25;5.50;;;;;17.74;57.63;102036.97;5070162;28;45381;-58
2022/07/05 04:42:42;;;;;;;;;6.50;5.00;;;;;17.74;57.90;102042.31;5068684;28;45331;-58
2022/07/05 04:45:08;;;;;;;;;6.75;5.00;;;;;17.73;57.76;102043.28;5069392;28;45511;-59
2022/07/05 04:47:36;;;;;;;;;5.75;5.25;;;;;17.74;58.01;102040.50;5067490;28;45317;-58
2022/07/05 04:50:04;;;;;;;;;8.50;5.00;;;;;17.80;58.19;102044.56;5069871;28;45406;-58
2022/07/05 04:52:30;;;;;;;;;8.00;5.00;;;;;17.84;58.00;102038.06;5066677;28;45411;-59
2022/07/05 04:54:55;;;;;;;;;5.00;4.75;;;;;17.89;58.03;102038.59;5072206;28;45165;-59
2022/07/05 04:57:21;;;;;;;;;9.50;6.00;;;;;17.93;58.16;102047.22;5071483;28;45240;-59
2022/07/05 04:59:46;;;;;;;;;8.75;5.50;;;;;17.94;58.15;102039.13;5070708;28;45559;-58
2022/07/05 05:02:12;;;;;;;;;5.50;5.50;;;;;17.96;58.03;102047.03;5066615;28;45378;-59
2022/07/05 05:04:37;;;;;;;;;10.00;7.00;;;;;17.94;57.85;102052.47;5069391;28;45539;-58
2022/07/05 05:07:03;;;;;;;;;6.00;5.25;;;;;17.91;58.06;102044.66;5072109;28;45421;-58
2022/07/05 05:09:29;;;;;;;;;7.00;6.00;;;;;17.90;58.37;102050.09;5070873;28;45605;-58
2022/07/05 05:11:54;;;;;;;;;9.00;6.00;;;;;17.91;58.16;102057.16;5070687;28;46411;-58
2022/07/05 05:14:19;;;;;;;;;8.50;7.00;;;;;17.91;58.32;102051.81;5069509;28;45511;-58
2022/07/05 05:16:45;;;;;;;;;6.75;4.75;;;;;17.88;58.36;102057.38;5068980;28;45424;-58
2022/07/05 05:19:11;;;;;;;;;8.50;5.50;;;;;17.89;58.49;102048.41;5069437;28;45436;-59
2022/07/05 05:21:36;;;;;;;;;7.50;6.00;;;;;17.84;58.50;102051.38;5072005;28;46290;-58
2022/07/05 05:24:01;;;;;;;;;10.25;5.50;;;;;17.80;58.63;102053.41;5070046;28;45350;-59
2022/07/05 05:26:27;;;;;;;;;7.25;5.75;;;;;17.84;58.51;102056.72;5069140;28;45485;-58
2022/07/05 05:28:53;;;;;;;;;7.00;5.75;;;;;17.90;58.68;102053.63;5069650;28;45293;-59
2022/07/05 05:31:18;;;;;;;;;8.75;5.75;;;;;17.96;58.81;102060.34;5071916;28;46148;-59
2022/07/05 05:33:45;;;;;;;;;7.75;7.50;;;;;18.01;58.52;102061.75;5060582;28;45223;-58
2022/07/05 05:36:11;;;;;;;;;9.50;8.00;;;;;18.09;58.91;102066.56;5060570;28;45362;-59
2022/07/05 05:38:36;;;;;;;;;8.75;6.75;;;;;18.19;58.84;102064.09;5060691;28;45417;-53
2022/07/05 05:41:02;;;;;;;;;10.25;7.00;;;;;18.26;58.61;102070.69;5059963;28;46261;-59
2022/07/05 05:43:27;;;;;;;;;8.00;8.00;;;;;18.33;58.46;102066.66;5060561;28;45344;-59
2022/07/05 05:45:53;;;;;;;;;8.50;6.50;;;;;18.39;58.71;102075.03;5060310;28;45411;-59
2022/07/05 05:48:19;;;;;;;;;11.25;6.25;;;;;18.45;58.80;102078.25;5060484;28;45316;-59
2022/07/05 05:50:46;;;;;;;;;8.50;7.00;;;;;18.48;58.50;102075.34;5059997;28;46183;-59
2022/07/05 05:53:11;;;;;;;;;8.50;5.75;;;;;18.53;58.35;102078.56;5060588;28;45326;-62
2022/07/05 05:55:37;;;;;;;;;10.50;7.00;;;;;18.57;58.22;102082.72;5062415;28;45310;-62
2022/07/05 05:58:14;;;;;;;;;11.00;10.00;;;;;18.61;58.20;102082.38;5058754;28;45590;-57
2022/07/05 06:00:40;;;;;;;;;11.00;8.00;;;;;18.64;58.26;102084.84;5066984;28;45361;-60
2022/07/05 06:03:05;;;;;;;;;8.50;8.00;;;;;18.66;58.27;102090.94;5079932;28;45238;-61
2022/07/05 06:05:30;;;;;;;;;9.75;7.00;;;;;18.71;58.21;102087.06;5077524;28;45477;-61
2022/07/05 06:07:56;;;;;;;;;11.00;8.25;;;;;18.76;58.10;102083.13;5066957;28;45363;-61
2022/07/05 06:10:24;;;;;;;;;7.00;6.00;;;;;18.78;58.10;102083.00;5063590;28;46127;-60
2022/07/05 06:12:51;;;;;;;;;11.50;7.00;;;;;18.84;57.66;102090.56;5066557;28;45299;-60
2022/07/05 06:15:17;;;;;;;;;11.00;10.00;;;;;18.88;57.65;102082.25;5060111;28;45266;-59
2022/07/05 06:17:43;;;;;;;;;8.50;6.25;;;;;18.91;58.11;102084.69;5065447;28;45593;-60
2022/07/05 06:20:16;;;;;;;;;10.00;6.00;;;;;18.99;57.78;102091.28;5059626;28;45468;-44
2022/07/05 06:22:41;;;;;;;;;12.00;9.25;;;;;19.04;58.11;102079.31;5058929;28;45380;-44
2022/07/05 06:25:07;;;;;;;;;12.25;8.00;;;;;19.09;57.58;102097.63;5062127;28;45479;-46
2022/07/05 06:27:42;;;;;;;;;8.00;6.75;;;;;19.15;57.72;102090.03;5066624;27;45232;-43
2022/07/05 06:30:08;;;;;;;;;6.00;6.00;;;;;19.24;57.80;102086.66;5062734;28;45969;-43
2022/07/05 06:32:34;;;;;;;;;16.25;9.00;;;;;19.31;57.78;102092.41;5063049;28;45258;-44
2022/07/05 06:34:59;;;;;;;;;6.25;6.25;;;;;19.37;57.49;102088.44;5062963;28;45393;-46
2022/07/05 06:37:25;;;;;;;;;11.50;8.00;;;;;19.42;57.58;102095.13;5060969;28;45407;-44
2022/07/05 06:39:50;;;;;;;;;11.50;8.25;;;;;19.46;57.38;102090.41;5061120;28;46221;-44
2022/07/05 06:42:16;;;;;;;;;7.25;6.00;;;;;19.55;57.39;102100.41;5061743;28;45457;-44
2022/07/05 06:44:42;;;;;;;;;10.00;7.75;;;;;19.61;57.64;102094.66;5062676;28;45426;-45
2022/07/05 06:47:07;;;;;;;;;12.00;9.50;;;;;19.78;57.51;102096.03;5067127;28;45392;-43
2022/07/05 06:49:34;;;;;;;;;6.25;6.25;;;;;19.85;57.17;102091.91;5072223;28;46450;-44
2022/07/05 06:51:59;;;;;;;;;9.00;9.00;;;;;19.90;56.68;102099.56;5062342;28;45343;-43
2022/07/05 06:54:25;;;;;;;;;9.75;8.00;;;;;19.91;57.06;102093.28;5061834;28;45445;-44
2022/07/05 06:56:51;;;;;;;;;14.50;10.75;;;;;19.93;56.46;102097.53;5062487;28;45481;-44
2022/07/05 06:59:16;;;;;;;;;10.75;7.25;;;;;19.95;56.82;102098.25;5062961;28;45248;-44
2022/07/05 07:01:41;;;;;;;;;11.00;8.75;;;;;19.99;56.71;102096.22;5067453;28;45334;-44
2022/07/05 07:04:07;;;;;;;;;15.25;8.50;;;;;19.99;56.24;102098.88;5066838;28;45365;-43
2022/07/05 07:06:33;;;;;;;;;10.75;8.00;;;;;20.02;56.09;102094.13;5072765;28;45399;-43
2022/07/05 07:11:42;;;;;;;;;7.25;6.00;;;;;20.08;56.17;102095.50;5070321;28;45322;-44
2022/07/05 07:14:07;;;;;;;;;15.50;9.00;;;;;20.15;55.96;102094.03;5071370;28;45172;-43
2022/07/05 07:16:33;;;;;;;;;11.50;7.25;;;;;20.19;56.51;102094.63;5068259;28;45748;-47
2022/07/05 07:18:58;;;;;;;;;11.25;7.75;;;;;20.23;56.04;102094.28;5070537;28;45724;-44
2022/07/05 07:21:24;;;;;;;;;14.50;9.00;;;;;20.27;55.97;102093.06;5069093;28;45377;-44
2022/07/05 07:23:49;;;;;;;;;12.25;10.50;;;;;20.38;56.00;102100.25;5069844;28;45236;-46
2022/07/05 07:26:15;;;;;;;;;11.00;8.00;;;;;20.38;56.05;102099.38;5070333;28;45498;-43
2022/07/05 07:28:40;;;;;;;;;11.00;10.00;;;;;20.36;55.71;102102.19;5070168;28;46256;-44
2022/07/05 07:31:06;;;;;;;;;11.25;8.75;;;;;20.37;55.69;102103.88;5068438;28;45540;-43
2022/07/05 07:33:33;;;;;;;;;11.50;9.25;;;;;20.38;55.67;102102.06;5070062;28;45404;-43
2022/07/05 07:35:58;;;;;;;;;12.75;8.75;;;;;20.40;55.46;102110.84;5069442;28;45489;-44
2022/07/05 07:38:25;;;;;;;;;14.00;10.00;;;;;20.44;55.77;102106.97;5072163;28;45493;-46
2022/07/05 07:40:51;;;;;;;;;13.75;9.00;;;;;20.47;55.54;102114.78;5073097;28;45313;-45
2022/07/05 07:43:17;;;;;;;;;10.75;9.00;;;;;20.50;55.25;102111.84;5071501;28;45462;-44
2022/07/05 07:45:43;;;;;;;;;10.00;8.00;;;;;20.53;55.35;102109.75;5069676;28;45306;-49
2022/07/05 07:48:09;;;;;;;;;8.75;8.25;;;;;20.54;55.65;102110.63;5070703;28;45328;-46
2022/07/05 07:50:34;;;;;;;;;13.75;8.50;;;;;20.59;55.26;102111.09;5067755;28;45357;-44
2022/07/05 07:53:00;;;;;;;;;11.00;7.00;;;;;20.62;55.16;102122.44;5073126;28;45298;-45
2022/07/05 07:55:26;;;;;;;;;13.25;9.00;;;;;20.64;55.28;102114.28;5062035;28;45381;-44
2022/07/05 07:57:51;;;;;;;;;8.25;8.25;;;;;20.66;55.14;102116.81;5079813;28;46096;-45
2022/07/05 08:00:17;;;;;;;;;7.75;7.00;;;;;20.69;55.13;102113.88;5080795;28;45594;-43
2022/07/05 08:02:42;;;;;;;;;10.25;8.50;;;;;20.72;54.93;102119.88;5081637;28;45465;-43
2022/07/05 08:05:11;;;;;;;;;13.50;11.25;;;;;20.76;54.63;102124.00;5081849;28;45547;-45
2022/07/05 08:07:36;;;;;;;;;9.00;8.50;;;;;20.79;54.65;102118.41;5081741;28;45300;-44
2022/07/05 08:10:04;;;;;;;;;8.25;8.25;;;;;20.84;54.75;102126.91;5081548;28;45227;-44
2022/07/05 08:12:29;;;;;;;;;10.75;9.00;;;;;20.86;54.76;102119.63;5081986;28;45177;-45
2022/07/05 08:14:55;;;;;;;;;11.75;8.50;;;;;20.89;54.89;102119.34;5081841;28;45499;-47
2022/07/05 08:17:21;;;;;;;;;14.50;10.00;;;;;20.95;54.70;102111.81;5081612;28;45207;-43
2022/07/05 08:22:30;;;;;;;;;12.50;8.50;;;;;21.03;54.68;102101.31;5061682;28;45370;-44
2022/07/05 08:24:56;;;;;;;;;7.50;7.50;;;;;21.07;54.40;102108.97;5064411;28;45693;-44
2022/07/05 08:27:21;;;;;;;;;9.50;7.00;;;;;21.13;54.41;102107.63;5068663;27;46182;-45
2022/07/05 08:29:47;;;;;;;;;10.50;8.00;;;;;21.14;54.22;102104.81;5061137;28;45252;-46
2022/07/05 08:32:12;;;;;;;;;6.50;5.75;;;;;21.18;53.92;102098.22;5061213;28;45400;-48
2022/07/05 08:34:39;;;;;;;;;8.00;7.50;;;;;21.24;54.07;102096.84;5059978;28;45525;-46
2022/07/05 08:37:05;;;;;;;;;10.75;8.25;;;;;21.26;53.63;102096.75;5060953;28;45342;-46
2022/07/05 08:39:31;;;;;;;;;9.50;8.00;;;;;21.29;53.42;102104.56;5061196;28;45331;-44
2022/07/05 08:41:58;;;;;;;;;9.75;6.50;;;;;21.40;53.80;102091.94;5060735;28;45275;-43
2022/07/05 08:44:23;;;;;;;;;12.00;7.75;;;;;21.49;53.53;102101.06;5061080;28;45411;-43
2022/07/05 08:46:53;;;;;;;;;11.50;8.00;;;;;21.53;53.39;102098.97;5060802;28;45412;-59
2022/07/05 08:49:27;;;;;;;;;8.75;7.25;;;;;21.56;53.34;102101.38;5060332;28;45496;-59
2022/07/05 08:51:54;;;;;;;;;8.75;6.50;;;;;21.61;53.17;102093.81;5059411;28;45662;-59
2022/07/05 08:54:22;;;;;;;;;9.00;5.25;;;;;21.65;52.95;102097.94;5061218;28;45465;-57
2022/07/05 08:56:47;;;;;;;;;9.50;5.75;;;;;21.69;52.82;102097.53;5060447;28;45518;-59
2022/07/05 08:59:13;;;;;;;;;12.00;7.25;;;;;21.73;52.57;102099.00;5061074;28;45188;-59
2022/07/05 09:01:39;;;;;;;;;5.75;5.75;;;;;21.79;52.48;102099.44;5060860;28;45306;-59
2022/07/05 09:04:07;;;;;;;;;11.50;7.00;;;;;21.79;52.28;102092.25;5060700;28;45497;-59
2022/07/05 09:06:37;;;;;;;;;7.25;5.25;;;;;21.81;52.11;102100.19;5060935;28;45441;-59
2022/07/05 09:09:04;;;;;;;;;6.00;6.00;;;;;21.87;51.99;102097.81;5059710;28;45371;-57
2022/07/05 09:11:32;;;;;;;;;6.25;5.50;;;;;21.94;51.55;102096.28;5060720;28;45172;-58
2022/07/05 09:13:57;;;;;;;;;7.50;5.75;;;;;22.00;51.45;102095.78;5060836;28;45385;-57
2022/07/05 09:16:23;;;;;;;;;6.00;6.00;;;;;22.09;51.65;102090.63;5060668;28;45253;-58
2022/07/05 09:18:51;;;;;;;;;6.25;4.25;;;;;22.14;51.43;102099.13;5060948;28;45339;-59
2022/07/05 09:21:26;;;;;;;;;6.50;5.00;;;;;22.18;51.11;102089.81;5060897;28;45197;-58
2022/07/05 09:23:58;;;;;;;;;6.75;5.25;;;;;22.21;51.02;102098.47;5061039;28;45251;-59
2022/07/05 09:26:33;;;;;;;;;9.25;4.50;;;;;22.24;50.71;102095.50;5071533;28;46024;-58
2022/07/05 09:28:58;;;;;;;;;5.75;5.75;;;;;22.26;50.50;102093.53;5060668;28;45305;-59
2022/07/05 09:31:33;;;;;;;;;9.25;7.25;;;;;22.34;50.70;102100.91;5059191;28;45401;-59
2022/07/05 09:34:12;;;;;;;;;9.25;8.75;;;;;22.36;50.42;102100.81;5060813;28;45405;-59
2022/07/05 09:36:48;;;;;;;;;9.25;8.00;;;;;22.42;50.68;102101.09;5069261;28;45548;-59
2022/07/05 09:39:13;;;;;;;;;8.25;5.25;;;;;22.47;50.63;102100.72;5079472;28;45259;-58
2022/07/05 09:41:39;;;;;;;;;5.25;5.25;;;;;22.48;50.16;102092.50;5080936;28;45342;-59
2022/07/05 09:44:05;;;;;;;;;8.00;7.00;;;;;22.49;50.17;102093.34;5080682;28;45448;-59
2022/07/05 09:46:31;;;;;;;;;11.75;7.75;;;;;22.51;50.07;102094.94;5080752;28;46166;-59
2022/07/05 09:48:57;;;;;;;;;5.75;4.00;;;;;22.58;49.86;102096.06;5080554;28;45393;-59
2022/07/05 09:51:23;;;;;;;;;9.00;5.00;;;;;22.69;49.53;102097.81;5080833;28;45330;-58
2022/07/05 09:53:54;;;;;;;;;4.75;3.50;;;;;22.72;49.08;102104.75;5080681;28;45297;-59
2022/07/05 09:56:20;;;;;;;;;5.75;5.00;;;;;22.76;48.92;102108.88;5080475;28;46437;-59
2022/07/05 09:58:46;;;;;;;;;3.25;3.25;;;;;22.80;48.69;102099.53;5080661;28;45286;-58
2022/07/05 10:01:32;;;;;;;;;4.00;4.00;;;;;22.89;48.32;102108.63;5080768;27;45343;-59
2022/07/05 10:04:01;;;;;;;;;5.00;5.00;;;;;22.90;48.46;102104.97;5083523;28;45338;-58
2022/07/05 10:06:28;;;;;;;;;6.25;5.75;;;;;22.91;47.77;102099.47;5083973;28;46215;-57
2022/07/05 10:08:54;;;;;;;;;6.25;4.00;;;;;22.97;48.00;102090.84;5084024;28;45281;-58
2022/07/05 10:11:20;;;;;;;;;3.00;3.00;;;;;23.07;47.54;102090.88;5083742;28;45456;-58
2022/07/05 10:13:50;;;;;;;;;4.75;3.00;;;;;23.15;47.39;102091.03;5083892;28;45605;-59
2022/07/05 10:16:18;;;;;;;;;5.75;4.75;;;;;23.23;47.10;102087.63;5083564;27;45318;-58
2022/07/05 10:18:46;;;;;;;;;9.75;5.50;;;;;23.33;46.81;102099.25;5075709;28;45200;-58
2022/07/05 10:21:15;;;;;;;;;6.00;5.50;;;;;23.40;47.15;102097.69;5063584;28;45337;-58
2022/07/05 10:23:47;;;;;;;;;5.25;4.00;;;;;23.48;46.70;102097.81;5063521;28;45388;-57
2022/07/05 10:26:15;;;;;;;;;4.50;4.50;;;;;23.57;46.59;102096.97;5074124;28;45560;-57
2022/07/05 10:28:44;;;;;;;;;6.25;6.25;;;;;23.64;46.71;102098.13;5063378;28;45351;-57
2022/07/05 10:31:12;;;;;;;;;5.50;5.50;;;;;23.65;46.89;102097.13;5063447;28;45294;-57
2022/07/05 10:33:38;;;;;;;;;3.50;3.50;;;;;23.65;46.68;102098.97;5063431;28;45533;-57
2022/07/05 10:36:04;;;;;;;;;5.00;4.50;;;;;23.72;46.11;102107.34;5062998;28;45457;-57
2022/07/05 10:38:34;;;;;;;;;5.50;5.50;;;;;23.82;46.39;102097.41;5063076;28;45356;-57
2022/07/05 10:41:03;;;;;;;;;5.50;5.25;;;;;23.91;46.38;102088.44;5063202;28;45300;-57
2022/07/05 10:43:29;;;;;;;;;6.00;4.50;;;;;24.00;46.06;102084.03;5063322;28;45457;-58
2022/07/05 10:45:54;;;;;;;;;5.75;5.75;;;;;24.10;45.92;102077.66;5062723;28;46170;-57
2022/07/05 10:48:27;;;;;;;;;6.25;5.25;;;;;24.17;45.81;102077.88;5063139;28;45291;-58
2022/07/05 10:50:58;;;;;;;;;5.50;5.50;;;;;24.19;45.57;102078.59;5063209;28;45401;-57
2022/07/05 10:53:55;;;;;;;;;4.50;4.25;;;;;24.05;45.19;102077.22;5063249;28;45279;-57
2022/07/05 10:56:21;;;;;;;;;6.00;4.00;;;;;24.06;45.30;102076.22;5062497;28;46301;-58
2022/07/05 10:58:47;;;;;;;;;6.75;6.00;;;;;24.16;45.36;102078.88;5062474;28;45640;-58
2022/07/05 11:01:16;;;;;;;;;5.00;4.25;;;;;24.30;45.07;102078.41;5062782;28;45268;-58
2022/07/05 11:03:42;;;;;;;;;4.00;4.00;;;;;24.40;44.65;102073.00;5061976;28;45210;-58
2022/07/05 11:06:08;;;;;;;;;6.50;6.50;;;;;24.48;44.65;102068.56;5062352;28;45244;-58
2022/07/05 11:08:56;;;;;;;;;7.75;5.75;;;;;24.58;43.97;102068.53;5062587;28;45257;-58
2022/07/05 11:11:30;;;;;;;;;4.25;4.00;;;;;24.65;44.44;102069.63;5062269;28;45320;-58
2022/07/05 11:13:58;;;;;;;;;5.25;4.75;;;;;24.69;43.52;102070.16;5062656;28;45265;-58
2022/07/05 11:16:37;;;;;;;;;6.50;5.00;;;;;24.78;43.45;102069.25;5062190;28;45454;-58
2022/07/05 11:19:11;;;;;;;;;4.50;3.75;;;;;24.87;43.40;102078.28;5062390;28;45215;-58
2022/07/05 11:21:38;;;;;;;;;6.75;4.00;;;;;24.93;43.44;102080.38;5062460;28;45252;-57
2022/07/05 11:24:25;;;;;;;;;4.50;3.75;;;;;24.84;42.89;102071.34;5062718;28;45236;-58
2022/07/05 11:26:54;;;;;;;;;5.50;4.00;;;;;24.74;43.16;102067.88;5073477;28;46229;-58